createdAt,value
2018-07-06T00:02:42.165Z,16.80
2018-07-06T00:05:51.932Z,16.80
2018-07-06T00:09:01.666Z,16.70
2018-07-06T00:12:11.426Z,16.60
2018-07-06T00:15:20.691Z,16.70
2018-07-06T00:18:30.587Z,16.70
2018-07-06T00:21:39.584Z,16.70
2018-07-06T00:24:49.296Z,16.70
2018-07-06T00:27:59.088Z,16.70
2018-07-06T00:31:08.810Z,16.60
2018-07-06T00:34:18.682Z,16.60
2018-07-06T00:37:28.502Z,16.50
2018-07-06T00:40:38.550Z,16.50
2018-07-06T00:43:47.744Z,16.40
2018-07-06T00:46:57.683Z,16.40
2018-07-06T00:50:07.530Z,16.40
2018-07-06T00:53:17.231Z,16.40
2018-07-06T00:56:27.052Z,16.30
2018-07-06T00:59:36.878Z,16.30
2018-07-06T01:05:42.732Z,16.40
2018-07-06T01:08:52.747Z,16.40
2018-07-06T01:12:02.247Z,16.40
2018-07-06T01:15:17.504Z,16.30
2018-07-06T01:18:27.213Z,16.40
2018-07-06T01:21:36.811Z,16.30
2018-07-06T01:24:46.611Z,16.40
2018-07-06T01:27:56.262Z,16.40
2018-07-06T01:31:06.955Z,16.40
2018-07-06T01:34:16.493Z,16.40
2018-07-06T01:37:26.226Z,16.40
2018-07-06T01:40:36.039Z,16.50
2018-07-06T01:43:45.930Z,16.50
2018-07-06T01:46:56.007Z,16.60
2018-07-06T01:50:05.847Z,16.50
2018-07-06T01:53:15.685Z,16.70
2018-07-06T01:56:25.578Z,16.80
2018-07-06T01:59:35.126Z,16.90
2018-07-06T02:02:44.792Z,16.80
2018-07-06T02:05:54.606Z,16.70
2018-07-06T02:09:04.331Z,16.70
2018-07-06T02:12:13.945Z,16.80
2018-07-06T02:15:23.731Z,16.80
2018-07-06T02:21:29.014Z,16.80
2018-07-06T02:24:38.938Z,16.80
2018-07-06T02:27:48.745Z,16.90
2018-07-06T02:30:58.306Z,16.80
2018-07-06T02:34:07.854Z,16.90
2018-07-06T02:37:17.532Z,16.90
2018-07-06T02:40:27.245Z,16.90
2018-07-06T02:43:36.816Z,17.00
2018-07-06T02:46:47.649Z,17.10
2018-07-06T02:49:57.598Z,17.20
2018-07-06T02:53:07.584Z,17.30
2018-07-06T02:56:17.313Z,17.30
2018-07-06T02:59:26.838Z,17.10
2018-07-06T03:02:36.570Z,17.10
2018-07-06T03:05:46.174Z,17.00
2018-07-06T03:11:51.842Z,17.20
2018-07-06T03:15:01.489Z,17.20
2018-07-06T03:18:11.005Z,17.30
2018-07-06T03:21:20.644Z,17.20
2018-07-06T03:24:30.315Z,17.20
2018-07-06T03:27:40.156Z,17.30
2018-07-06T03:30:49.832Z,17.30
2018-07-06T03:33:59.796Z,17.40
2018-07-06T03:37:09.682Z,17.40
2018-07-06T03:40:19.658Z,17.50
2018-07-06T03:43:29.622Z,17.50
2018-07-06T03:46:39.564Z,17.50
2018-07-06T03:49:49.340Z,17.60
2018-07-06T03:52:58.381Z,17.50
2018-07-06T03:56:08.254Z,17.50
2018-07-06T03:59:17.971Z,17.50
2018-07-06T04:02:27.944Z,17.50
2018-07-06T04:05:37.816Z,17.60
2018-07-06T04:08:47.644Z,17.80
2018-07-06T04:11:57.624Z,18.00
2018-07-06T04:15:07.127Z,18.30
2018-07-06T04:18:16.972Z,18.20
2018-07-06T04:21:26.503Z,18.30
2018-07-06T04:24:37.474Z,18.40
2018-07-06T04:27:47.086Z,18.50
2018-07-06T04:30:56.824Z,18.70
2018-07-06T04:34:05.986Z,18.80
2018-07-06T04:37:15.098Z,18.80
2018-07-06T04:40:24.667Z,18.70
2018-07-06T04:43:33.942Z,18.70
2018-07-06T04:46:43.892Z,18.80
2018-07-06T04:49:53.670Z,18.70
2018-07-06T04:53:04.589Z,18.90
2018-07-06T04:56:14.598Z,19.00
2018-07-06T04:59:24.422Z,19.00
2018-07-06T05:02:33.728Z,19.00
2018-07-06T05:05:43.602Z,19.10
2018-07-06T05:08:53.579Z,19.10
2018-07-06T05:12:03.401Z,19.20
2018-07-06T05:15:12.416Z,19.20
2018-07-06T05:18:22.330Z,19.20
2018-07-06T05:21:32.182Z,19.30
2018-07-06T05:24:42.182Z,19.50
2018-07-06T05:27:52.183Z,19.50
2018-07-06T05:31:01.245Z,19.70
2018-07-06T05:34:11.132Z,19.80
2018-07-06T05:37:21.043Z,19.90
2018-07-06T05:40:30.988Z,20.10
2018-07-06T05:43:40.826Z,20.10
2018-07-06T05:46:50.817Z,20.10
2018-07-06T05:50:00.850Z,20.20
2018-07-06T05:53:10.068Z,20.30
2018-07-06T05:56:19.221Z,20.40
2018-07-06T05:59:28.237Z,20.50
2018-07-06T06:02:38.131Z,20.50
2018-07-06T06:05:55.089Z,20.60
2018-07-06T06:08:52.126Z,20.60
2018-07-06T06:11:49.250Z,20.70
2018-07-06T06:14:46.428Z,20.90
2018-07-06T06:17:43.635Z,21.20
2018-07-06T06:20:41.779Z,21.20
2018-07-06T06:23:39.103Z,21.50
2018-07-06T06:26:42.136Z,21.60
2018-07-06T06:29:40.219Z,21.70
2018-07-06T06:32:38.172Z,21.70
2018-07-06T06:35:36.307Z,21.80
2018-07-06T06:38:33.492Z,21.70
2018-07-06T06:41:30.864Z,22.00
2018-07-06T06:44:28.777Z,22.10
2018-07-06T06:47:26.936Z,22.30
2018-07-06T06:50:24.741Z,22.40
2018-07-06T06:53:22.160Z,22.60
2018-07-06T06:56:20.272Z,22.70
2018-07-06T06:59:18.431Z,22.80
2018-07-06T07:02:15.623Z,23.10
2018-07-06T07:05:14.729Z,24.00
2018-07-06T07:08:12.926Z,24.60
2018-07-06T07:11:10.375Z,25.30
2018-07-06T07:14:07.554Z,26.90
2018-07-06T07:17:05.636Z,27.60
2018-07-06T07:20:03.515Z,28.50
2018-07-06T07:23:00.920Z,28.90
2018-07-06T07:25:58.935Z,28.00
2018-07-06T07:28:56.286Z,27.60
2018-07-06T07:31:54.475Z,28.30
2018-07-06T07:34:51.696Z,27.50
2018-07-06T07:37:48.999Z,28.10
2018-07-06T07:41:01.937Z,28.00
2018-07-06T07:44:07.985Z,28.30
2018-07-06T07:47:06.126Z,28.40
2018-07-06T07:53:05.327Z,28.60
2018-07-06T07:56:02.550Z,28.50
2018-07-06T07:59:00.683Z,28.40
2018-07-06T08:01:59.719Z,28.30
2018-07-06T08:04:57.515Z,28.40
2018-07-06T08:07:55.431Z,28.30
2018-07-06T08:10:53.236Z,27.60
2018-07-06T08:13:51.112Z,26.10
2018-07-06T08:16:49.266Z,26.30
2018-07-06T08:19:47.283Z,26.40
2018-07-06T08:22:45.131Z,26.90
2018-07-06T08:35:29.707Z,27.00
2018-07-06T08:38:28.705Z,26.90
2018-07-06T08:41:26.582Z,27.00
2018-07-06T08:44:24.338Z,27.70
2018-07-06T08:47:21.945Z,28.60
2018-07-06T08:50:19.691Z,29.30
2018-07-06T08:53:17.442Z,29.40
2018-07-06T08:56:15.070Z,29.10
2018-07-06T08:59:12.851Z,28.50
2018-07-06T09:02:12.678Z,27.80
2018-07-06T09:05:10.598Z,28.60
2018-07-06T09:08:09.092Z,28.50
2018-07-06T09:11:08.025Z,28.40
2018-07-06T09:14:05.883Z,27.30
2018-07-06T09:17:03.657Z,26.70
2018-07-06T09:20:02.813Z,26.30
2018-07-06T09:23:00.440Z,25.70
2018-07-06T09:25:58.334Z,25.70
2018-07-06T09:28:55.937Z,26.90
2018-07-06T09:31:53.765Z,27.70
2018-07-06T09:34:52.132Z,28.60
2018-07-06T09:37:49.616Z,29.10
2018-07-06T09:40:47.471Z,28.30
2018-07-06T09:43:45.290Z,27.70
2018-07-06T09:46:44.162Z,28.50
2018-07-06T09:49:42.927Z,29.20
2018-07-06T09:52:40.875Z,29.20
2018-07-06T09:55:38.496Z,29.40
2018-07-06T09:58:37.443Z,29.30
2018-07-06T10:01:35.233Z,29.20
2018-07-06T10:04:33.893Z,29.00
2018-07-06T10:07:32.723Z,29.30
2018-07-06T10:13:22.114Z,28.60
2018-07-06T10:16:20.975Z,28.90
2018-07-06T10:19:18.097Z,28.90
2018-07-06T10:22:15.298Z,29.50
2018-07-06T10:25:13.280Z,29.60
2018-07-06T10:28:17.616Z,29.20
2018-07-06T10:31:27.627Z,30.00
2018-07-06T10:34:25.853Z,30.90
2018-07-06T10:37:24.786Z,30.90
2018-07-06T10:40:22.823Z,30.90
2018-07-06T10:43:20.021Z,30.40
2018-07-06T10:46:18.052Z,30.80
2018-07-06T10:49:16.083Z,30.10
2018-07-06T10:52:14.106Z,29.50
2018-07-06T10:55:12.525Z,29.70
2018-07-06T10:58:10.209Z,30.40
2018-07-06T11:01:08.228Z,31.00
2018-07-06T11:04:06.158Z,30.30
2018-07-06T11:07:04.244Z,30.80
2018-07-06T11:10:02.245Z,31.00
2018-07-06T11:13:00.246Z,30.90
2018-07-06T11:15:58.361Z,30.80
2018-07-06T11:18:56.535Z,30.50
2018-07-06T11:21:54.716Z,29.80
2018-07-06T11:24:52.604Z,30.40
2018-07-06T11:27:50.810Z,30.20
2018-07-06T11:30:48.152Z,30.10
2018-07-06T11:33:46.260Z,30.60
2018-07-06T11:36:46.414Z,31.00
2018-07-06T11:39:43.665Z,30.50
2018-07-06T11:42:41.891Z,30.40
2018-07-06T11:45:39.940Z,30.60
2018-07-06T11:48:37.638Z,30.60
2018-07-06T11:51:35.711Z,30.20
2018-07-06T11:54:33.747Z,29.50
2018-07-06T11:57:31.703Z,30.10
2018-07-06T12:00:28.978Z,29.80
2018-07-06T12:03:26.998Z,30.20
2018-07-06T12:06:25.025Z,29.80
2018-07-06T12:09:23.094Z,29.40
2018-07-06T12:12:20.903Z,29.10
2018-07-06T12:15:18.849Z,29.40
2018-07-06T12:18:16.933Z,29.50
2018-07-06T12:21:14.767Z,29.00
2018-07-06T12:24:12.548Z,29.10
2018-07-06T12:27:10.621Z,29.40
2018-07-06T12:30:08.591Z,29.20
2018-07-06T12:33:05.890Z,29.00
2018-07-06T12:36:03.563Z,29.20
2018-07-06T12:39:01.127Z,28.90
2018-07-06T12:41:58.931Z,27.90
2018-07-06T12:44:56.554Z,28.40
2018-07-06T12:47:54.422Z,29.40
2018-07-06T12:50:52.221Z,30.40
2018-07-06T12:53:49.941Z,30.10
2018-07-06T12:56:47.454Z,29.90
2018-07-06T12:59:46.554Z,29.80
2018-07-06T13:02:44.339Z,29.60
2018-07-06T13:05:44.084Z,30.40
2018-07-06T13:08:41.859Z,30.40
2018-07-06T13:11:39.867Z,30.70
2018-07-06T13:14:37.793Z,30.30
2018-07-06T13:17:35.442Z,30.50
2018-07-06T13:20:33.270Z,30.80
2018-07-06T13:23:30.975Z,30.60
2018-07-06T13:26:28.979Z,29.60
2018-07-06T13:29:27.799Z,28.60
2018-07-06T13:32:25.547Z,28.80
2018-07-06T13:35:23.559Z,29.50
2018-07-06T13:38:21.696Z,29.10
2018-07-06T13:41:19.241Z,29.50
2018-07-06T13:44:17.107Z,28.70
2018-07-06T13:47:14.893Z,29.40
2018-07-06T13:50:12.965Z,29.50
2018-07-06T13:53:10.728Z,28.70
2018-07-06T13:56:08.664Z,29.50
2018-07-06T14:01:56.361Z,30.60
2018-07-06T14:04:54.187Z,30.40
2018-07-06T14:07:52.137Z,30.40
2018-07-06T14:10:49.839Z,29.40
2018-07-06T14:13:47.796Z,29.30
2018-07-06T14:16:45.980Z,29.50
2018-07-06T14:19:43.526Z,29.30
2018-07-06T14:22:41.200Z,28.30
2018-07-06T14:25:39.085Z,28.50
2018-07-06T14:28:37.902Z,28.40
2018-07-06T14:31:35.694Z,28.60
2018-07-06T14:34:33.405Z,28.20
2018-07-06T14:37:31.194Z,27.30
2018-07-06T14:40:28.806Z,26.50
2018-07-06T14:43:58.632Z,26.10
2018-07-06T14:46:56.420Z,26.50
2018-07-06T14:49:54.987Z,26.50
2018-07-06T14:52:53.065Z,26.20
2018-07-06T14:55:51.936Z,26.50
2018-07-06T14:58:49.703Z,26.70
2018-07-06T15:01:47.630Z,27.30
2018-07-06T15:04:45.727Z,27.20
2018-07-06T15:07:43.750Z,27.60
2018-07-06T15:13:31.913Z,26.90
2018-07-06T15:16:29.539Z,26.70
2018-07-06T15:19:27.071Z,26.60
2018-07-06T15:22:24.857Z,26.80
2018-07-06T15:25:23.484Z,26.70
2018-07-06T15:28:21.333Z,26.50
2018-07-06T15:31:18.939Z,27.00
2018-07-06T15:34:16.727Z,27.10
2018-07-06T15:37:14.543Z,27.20
2018-07-06T15:40:12.478Z,26.90
2018-07-06T15:43:10.254Z,27.10
2018-07-06T15:46:08.269Z,26.20
2018-07-06T15:49:05.948Z,25.60
2018-07-06T15:52:03.922Z,25.60
2018-07-06T15:55:01.702Z,25.70
2018-07-06T15:57:59.335Z,25.90
2018-07-06T16:00:57.316Z,25.60
2018-07-06T16:03:55.256Z,25.70
2018-07-06T16:06:52.869Z,26.10
2018-07-06T16:09:50.462Z,26.30
2018-07-06T16:12:48.186Z,26.20
2018-07-06T16:15:45.923Z,26.50
2018-07-06T16:18:43.583Z,26.40
2018-07-06T16:24:31.070Z,26.30
2018-07-06T16:27:29.897Z,25.80
2018-07-06T16:30:30.650Z,25.90
2018-07-06T16:33:28.407Z,25.80
2018-07-06T16:36:26.421Z,25.70
2018-07-06T16:39:24.171Z,25.60
2018-07-06T16:42:22.264Z,25.80
2018-07-06T16:45:20.185Z,25.90
2018-07-06T16:48:17.368Z,25.50
2018-07-06T16:51:14.486Z,25.10
2018-07-06T16:54:11.802Z,24.90
2018-07-06T16:57:09.981Z,25.00
2018-07-06T17:00:08.036Z,25.00
2018-07-06T17:03:06.155Z,24.90
2018-07-06T17:06:04.328Z,24.80
2018-07-06T17:09:01.793Z,24.80
2018-07-06T17:12:00.748Z,24.70
2018-07-06T17:14:58.774Z,24.90
2018-07-06T17:17:56.715Z,24.80
2018-07-06T17:20:54.746Z,25.00
2018-07-06T17:23:51.994Z,25.00
2018-07-06T17:26:50.095Z,24.60
2018-07-06T17:29:48.215Z,24.40
2018-07-06T17:32:46.302Z,24.30
2018-07-06T17:35:44.434Z,23.90
2018-07-06T17:38:41.543Z,23.70
2018-07-06T17:41:39.573Z,23.60
2018-07-06T17:44:38.508Z,23.50
2018-07-06T17:47:36.742Z,23.60
2018-07-06T17:50:34.834Z,23.50
2018-07-06T17:53:32.107Z,23.40
2018-07-06T17:56:30.172Z,23.50
2018-07-06T17:59:28.269Z,23.40
2018-07-06T18:02:25.464Z,23.30
2018-07-06T18:05:23.494Z,23.40
2018-07-06T18:08:20.742Z,23.40
2018-07-06T18:11:18.887Z,23.50
2018-07-06T18:14:16.219Z,23.30
2018-07-06T18:17:14.257Z,23.20
2018-07-06T18:20:12.319Z,23.20
2018-07-06T18:23:11.317Z,23.10
2018-07-06T18:26:09.404Z,23.20
2018-07-06T18:29:06.661Z,23.10
2018-07-06T18:32:04.758Z,23.10
2018-07-06T18:37:52.950Z,23.20
2018-07-06T18:40:52.503Z,23.10
2018-07-06T18:43:50.288Z,23.00
2018-07-06T18:46:48.216Z,22.90
2018-07-06T18:49:45.956Z,22.90
2018-07-06T18:52:43.687Z,23.00
2018-07-06T18:55:41.863Z,23.00
2018-07-06T18:58:39.695Z,22.90
2018-07-06T19:01:37.794Z,22.90
2018-07-06T19:04:35.609Z,22.90
2018-07-06T19:07:33.632Z,22.80
2018-07-06T19:10:31.544Z,22.90
2018-07-06T19:13:29.739Z,22.80
2018-07-06T19:16:27.610Z,22.80
2018-07-06T19:19:25.385Z,22.70
2018-07-06T19:22:23.396Z,22.80
2018-07-06T19:25:21.346Z,22.70
2018-07-06T19:28:19.239Z,22.80
2018-07-06T19:31:17.184Z,22.70
2018-07-06T19:34:14.805Z,22.80
2018-07-06T19:37:12.584Z,22.70
2018-07-06T19:40:10.510Z,22.80
2018-07-06T19:43:08.216Z,22.80
2018-07-06T19:46:06.020Z,22.70
2018-07-06T19:49:03.969Z,22.90
2018-07-06T19:52:01.719Z,22.70
2018-07-06T19:54:59.550Z,22.70
2018-07-06T19:57:57.319Z,22.60
2018-07-06T20:00:54.927Z,22.50
2018-07-06T20:03:52.908Z,22.40
2018-07-06T20:06:50.781Z,22.40
2018-07-06T20:09:48.592Z,22.30
2018-07-06T20:15:36.296Z,22.40
2018-07-06T20:18:34.215Z,22.50
2018-07-06T20:21:33.035Z,22.50
2018-07-06T20:24:31.224Z,22.60
2018-07-06T20:27:29.312Z,22.50
2018-07-06T20:30:27.272Z,22.40
2018-07-06T20:33:25.154Z,22.50
2018-07-06T20:36:22.864Z,22.50
2018-07-06T20:39:20.580Z,22.40
2018-07-06T20:42:18.343Z,22.60
2018-07-06T20:45:17.239Z,22.50
2018-07-06T20:48:15.450Z,22.60
2018-07-06T20:51:13.458Z,22.50
2018-07-06T20:54:11.448Z,22.50
2018-07-06T20:57:09.323Z,22.60
2018-07-06T21:00:07.194Z,22.70
2018-07-06T21:03:05.270Z,22.60
2018-07-06T21:06:03.115Z,22.70
2018-07-06T21:09:02.077Z,22.70
2018-07-06T21:11:59.748Z,22.60
2018-07-06T21:14:57.543Z,22.50
2018-07-06T21:17:55.528Z,22.50
2018-07-06T21:23:43.440Z,22.40
2018-07-06T21:26:41.274Z,22.30
2018-07-06T21:29:39.164Z,22.30
2018-07-06T21:32:37.127Z,22.40
2018-07-06T21:35:35.116Z,22.30
2018-07-06T21:38:33.008Z,22.10
2018-07-06T21:41:31.023Z,21.90
2018-07-06T21:44:29.951Z,21.70
2018-07-06T21:47:27.779Z,21.50
2018-07-06T21:50:25.648Z,21.40
2018-07-06T21:53:23.478Z,21.20
2018-07-06T21:56:22.910Z,20.90
2018-07-06T21:59:20.290Z,20.80
2018-07-06T22:02:22.206Z,20.70
2018-07-06T22:05:20.180Z,20.60
2018-07-06T22:08:18.029Z,20.60
2018-07-06T22:11:15.854Z,20.60
2018-07-06T22:14:13.620Z,20.50
2018-07-06T22:17:11.440Z,20.40
2018-07-06T22:20:09.077Z,20.30
2018-07-06T22:23:07.162Z,20.40
2018-07-06T22:26:05.164Z,20.40
2018-07-06T22:29:02.821Z,20.50
2018-07-06T22:31:59.994Z,20.60
2018-07-06T22:34:58.111Z,20.60
2018-07-06T22:37:55.890Z,20.60
2018-07-06T22:40:53.571Z,20.40
2018-07-06T22:43:51.290Z,20.10
2018-07-06T22:46:49.210Z,20.30
2018-07-06T22:49:46.938Z,20.30
2018-07-06T22:52:44.812Z,20.30
2018-07-06T22:55:42.939Z,20.30
2018-07-06T22:58:40.696Z,20.30
2018-07-06T23:01:38.335Z,20.20
2018-07-06T23:04:36.495Z,20.30
2018-07-06T23:07:34.490Z,20.30
2018-07-06T23:10:32.615Z,20.30
2018-07-06T23:13:30.379Z,20.30
2018-07-06T23:16:28.261Z,20.20
2018-07-06T23:19:26.016Z,20.20
2018-07-06T23:22:24.112Z,20.00
2018-07-06T23:25:22.007Z,19.70
2018-07-06T23:28:19.752Z,19.60
2018-07-06T23:31:18.931Z,19.40
2018-07-06T23:34:16.904Z,19.20
2018-07-06T23:37:14.583Z,19.10
2018-07-06T23:40:12.559Z,19.00
2018-07-06T23:43:11.599Z,19.00
2018-07-06T23:46:09.701Z,18.90
2018-07-06T23:49:07.574Z,19.00
2018-07-06T23:52:05.422Z,19.00
2018-07-06T23:55:04.099Z,18.90
2018-07-06T23:58:02.030Z,18.80
